首页
METAR-TAF:

METAR-TAF

机场 :

Dibrugarh, 印度

纬度: 27-29N, 经度: 095-01E, 海拔: 110米

当前天气观测

该预报发布于31分钟前的01:00 UTC
静风
温度 26°C
湿度 100%
气压 1004 hPa
能見度: 2000
散云层高于1800英尺
多云层高于10000英尺
轻雾

METAR: VEMN 170100Z 00000KT 2000 BR SCT018 BKN100 26/26 Q1004 TEMPO 1500 -RA

时间: 07:01 (01:31 UTC)

预报

该预报发布于2小时和31分钟前的23:00 UTC
预报有效从17日的 00点(UTC)到 17日的 09点(UTC)
风速节,风向
能見度: 2500
散云层高于1600英尺
少量云层高于2500英尺, 积雨云.
多云层高于9000英尺
小雨, 轻雾
成为
从 17日的 03点(UTC)到 17日的 05点(UTC)
风速5节,风向
能見度: 4000
散云层高于1800英尺
多云层高于10000英尺
小雨, 霾,

TAF: VEMN 162300Z 1700/1709 00000KT 2500 -RA BR SCT016 FEW025CB BKN090 BECMG 1703/1705 19005KT 4000 -RA HZ SCT018 BKN100

超过4000个机场的气象观测和天气预报(METAR&TAF报告)。

可查询的气象台以黄色和红色小点在地图上表示。

将鼠标移到小点上方,可查看气象台名称。

然后点击查看天气观测和预报。

如需切换地图:点击带黑十字的绿色按钮放大地图;点击带横线的绿色按钮缩小地图;或者点击绿色箭头查看邻近地区的地图。


METAR-TAF: